Time,TemperatureF,DewpointF,PressureIn,WindDirection,WindDirectionDegrees,WindSpeedMPH,WindSpeedGustMPH,Humidity,HourlyPrecipIn,Conditions,Clouds,dailyrainin,SoftwareType,DateUTC
2013-05-13 00:03:00,43.5,34.0,30.06,West,270,0.0,0.0,69,0.00,,,0.00,WUHU216HW,2013-05-13 04:03:00,
2013-05-13 00:08:00,43.3,33.8,30.07,West,270,0.0,0.0,69,0.00,,,0.00,WUHU216HW,2013-05-13 04:08:00,
2013-05-13 00:13:00,43.1,33.7,30.07,West,270,0.0,0.0,69,0.00,,,0.00,WUHU216HW,2013-05-13 04:13:00,
2013-05-13 00:18:00,42.9,33.9,30.06,West,270,0.0,0.0,70,0.00,,,0.00,WUHU216HW,2013-05-13 04:18:00,
2013-05-13 00:23:00,42.9,33.9,30.06,West,270,0.0,0.0,70,0.00,,,0.00,WUHU216HW,2013-05-13 04:23:00,
2013-05-13 00:28:00,42.6,33.6,30.06,West,270,0.0,0.0,70,0.00,,,0.00,WUHU216HW,2013-05-13 04:28:00,
2013-05-13 00:33:00,42.6,33.6,30.06,West,270,0.0,0.0,70,0.00,,,0.00,WUHU216HW,2013-05-13 04:33:00,
2013-05-13 00:38:00,42.4,33.7,30.06,West,270,0.0,0.0,71,0.00,,,0.00,WUHU216HW,2013-05-13 04:38:00,
2013-05-13 00:43:00,42.0,33.4,30.06,West,270,0.0,0.0,71,0.00,,,0.00,WUHU216HW,2013-05-13 04:43:00,
2013-05-13 00:48:00,42.0,33.4,30.06,West,270,0.0,0.0,71,0.00,,,0.00,WUHU216HW,2013-05-13 04:48:00,
2013-05-13 00:53:00,42.0,33.4,30.06,West,270,0.0,0.0,71,0.00,,,0.00,WUHU216HW,2013-05-13 04:53:00,
2013-05-13 00:58:00,41.9,33.2,30.06,West,270,0.0,0.0,71,0.00,,,0.00,WUHU216HW,2013-05-13 04:58:00,
2013-05-13 01:03:00,41.7,33.3,30.06,West,270,0.0,0.0,72,0.00,,,0.00,WUHU216HW,2013-05-13 05:03:00,
2013-05-13 01:08:00,41.5,33.1,30.06,West,270,0.0,0.0,72,0.00,,,0.00,WUHU216HW,2013-05-13 05:08:00,
2013-05-13 01:13:00,41.5,33.1,30.06,West,270,0.0,0.0,72,0.00,,,0.00,WUHU216HW,2013-05-13 05:13:00,
2013-05-13 01:18:00,41.3,33.3,30.06,West,270,0.0,0.0,73,0.00,,,0.00,WUHU216HW,2013-05-13 05:18:00,
2013-05-13 01:23:00,41.1,33.1,30.06,West,270,0.0,0.0,73,0.00,,,0.00,WUHU216HW,2013-05-13 05:23:00,
2013-05-13 01:28:00,41.1,33.1,30.06,West,270,0.0,0.0,73,0.00,,,0.00,WUHU216HW,2013-05-13 05:28:00,
2013-05-13 01:33:00,41.0,32.9,30.06,West,270,0.0,0.0,73,0.00,,,0.00,WUHU216HW,2013-05-13 05:33:00,
2013-05-13 01:38:00,40.8,32.7,30.06,West,270,0.0,0.0,73,0.00,,,0.00,WUHU216HW,2013-05-13 05:38:00,
2013-05-13 01:43:00,40.8,32.7,30.06,West,270,0.0,0.0,73,0.00,,,0.00,WUHU216HW,2013-05-13 05:43:00,
2013-05-13 01:48:00,40.6,32.6,30.06,West,270,0.0,0.0,73,0.00,,,0.00,WUHU216HW,2013-05-13 05:48:00,
2013-05-13 01:53:00,40.6,32.6,30.06,West,270,0.0,0.0,73,0.00,,,0.00,WUHU216HW,2013-05-13 05:53:00,
2013-05-13 01:58:00,40.4,32.7,30.06,West,270,0.0,0.0,74,0.00,,,0.00,WUHU216HW,2013-05-13 05:58:00,
2013-05-13 02:03:00,40.2,32.5,30.05,West,270,0.0,0.0,74,0.00,,,0.00,WUHU216HW,2013-05-13 06:03:00,
2013-05-13 02:08:00,40.2,32.5,30.05,West,270,0.0,0.0,74,0.00,,,0.00,WUHU216HW,2013-05-13 06:08:00,
2013-05-13 02:13:00,40.1,32.4,30.05,West,270,0.0,0.0,74,0.00,,,0.00,WUHU216HW,2013-05-13 06:13:00,
2013-05-13 02:18:00,39.9,32.2,30.06,West,270,0.0,0.0,74,0.00,,,0.00,WUHU216HW,2013-05-13 06:18:00,
2013-05-13 02:23:00,39.9,32.2,30.05,West,270,0.0,0.0,74,0.00,,,0.00,WUHU216HW,2013-05-13 06:23:00,
2013-05-13 02:28:00,39.7,32.0,30.05,West,270,0.0,0.0,74,0.00,,,0.00,WUHU216HW,2013-05-13 06:28:00,
2013-05-13 02:33:00,39.7,32.0,30.05,West,270,0.0,0.0,74,0.00,,,0.00,WUHU216HW,2013-05-13 06:33:00,
2013-05-13 02:38:00,39.7,32.4,30.05,West,270,0.0,0.0,75,0.00,,,0.00,WUHU216HW,2013-05-13 06:38:00,
2013-05-13 02:43:00,39.5,32.2,30.05,West,270,0.0,0.0,75,0.00,,,0.00,WUHU216HW,2013-05-13 06:43:00,
2013-05-13 02:48:00,39.3,32.0,30.05,West,270,0.0,0.0,75,0.00,,,0.00,WUHU216HW,2013-05-13 06:48:00,
2013-05-13 02:53:00,39.3,32.0,30.05,West,270,0.0,0.0,75,0.00,,,0.00,WUHU216HW,2013-05-13 06:53:00,
2013-05-13 02:58:00,39.0,31.7,30.05,West,270,0.0,0.0,75,0.00,,,0.00,WUHU216HW,2013-05-13 06:58:00,
2013-05-13 03:03:00,39.0,31.7,30.05,West,270,0.0,0.0,75,0.00,,,0.00,WUHU216HW,2013-05-13 07:03:00,
2013-05-13 03:08:00,39.0,32.0,30.05,West,270,0.0,0.0,76,0.00,,,0.00,WUHU216HW,2013-05-13 07:08:00,
2013-05-13 03:13:00,38.8,31.8,30.05,West,270,0.0,0.0,76,0.00,,,0.00,WUHU216HW,2013-05-13 07:13:00,
2013-05-13 03:18:00,38.8,31.8,30.05,West,270,0.0,0.0,76,0.00,,,0.00,WUHU216HW,2013-05-13 07:18:00,
2013-05-13 03:23:00,38.8,31.8,30.05,West,270,0.0,0.0,76,0.00,,,0.00,WUHU216HW,2013-05-13 07:23:00,
2013-05-13 03:28:00,38.4,31.5,30.05,West,270,0.0,0.0,76,0.00,,,0.00,WUHU216HW,2013-05-13 07:28:00,
2013-05-13 03:33:00,38.4,31.5,30.05,West,270,0.0,0.0,76,0.00,,,0.00,WUHU216HW,2013-05-13 07:33:00,
2013-05-13 03:38:00,38.3,31.3,30.05,West,270,0.0,0.0,76,0.00,,,0.00,WUHU216HW,2013-05-13 07:38:00,
2013-05-13 03:43:00,38.1,31.2,30.05,West,270,0.0,0.0,76,0.00,,,0.00,WUHU216HW,2013-05-13 07:43:00,
2013-05-13 03:48:00,38.1,31.2,30.05,West,270,0.0,0.0,76,0.00,,,0.00,WUHU216HW,2013-05-13 07:48:00,
2013-05-13 03:53:00,37.9,31.0,30.05,West,270,0.0,0.0,76,0.00,,,0.00,WUHU216HW,2013-05-13 07:53:00,
2013-05-13 03:58:00,37.7,31.1,30.05,West,270,0.0,0.0,77,0.00,,,0.00,WUHU216HW,2013-05-13 07:58:00,
2013-05-13 04:04:00,37.7,31.1,30.05,West,270,0.0,0.0,77,0.00,,,0.00,WUHU216HW,2013-05-13 08:04:00,
2013-05-13 04:09:00,37.5,31.0,30.05,West,270,0.0,0.0,77,0.00,,,0.00,WUHU216HW,2013-05-13 08:09:00,
2013-05-13 04:14:00,37.4,30.8,30.05,West,270,0.0,0.0,77,0.00,,,0.00,WUHU216HW,2013-05-13 08:14:00,
2013-05-13 04:19:00,37.2,30.6,30.05,West,270,0.0,0.0,77,0.00,,,0.00,WUHU216HW,2013-05-13 08:19:00,
2013-05-13 04:24:00,37.2,30.6,30.05,West,270,0.0,0.0,77,0.00,,,0.00,WUHU216HW,2013-05-13 08:24:00,
2013-05-13 04:29:00,37.2,30.6,30.05,West,270,0.0,0.0,77,0.00,,,0.00,WUHU216HW,2013-05-13 08:29:00,
2013-05-13 04:34:00,37.2,30.6,30.05,West,270,0.0,0.0,77,0.00,,,0.00,WUHU216HW,2013-05-13 08:34:00,
2013-05-13 04:39:00,37.2,30.6,30.05,West,270,0.0,0.0,77,0.00,,,0.00,WUHU216HW,2013-05-13 08:39:00,
2013-05-13 04:44:00,37.2,30.6,30.05,West,270,0.0,0.0,77,0.00,,,0.00,WUHU216HW,2013-05-13 08:44:00,
2013-05-13 04:49:00,37.2,30.6,30.05,West,270,0.0,0.0,77,0.00,,,0.00,WUHU216HW,2013-05-13 08:49:00,
2013-05-13 04:54:00,37.2,30.6,30.06,West,270,0.0,0.0,77,0.00,,,0.00,WUHU216HW,2013-05-13 08:54:00,
2013-05-13 04:59:00,37.2,30.6,30.06,West,270,0.0,0.0,77,0.00,,,0.00,WUHU216HW,2013-05-13 08:59:00,
2013-05-13 05:04:00,37.2,30.6,30.06,West,270,0.0,0.0,77,0.00,,,0.00,WUHU216HW,2013-05-13 09:04:00,
2013-05-13 05:09:00,37.2,30.6,30.06,West,270,0.0,0.0,77,0.00,,,0.00,WUHU216HW,2013-05-13 09:09:00,
2013-05-13 05:14:00,37.0,30.4,30.06,West,270,0.0,0.0,77,0.00,,,0.00,WUHU216HW,2013-05-13 09:14:00,
2013-05-13 05:19:00,37.0,30.4,30.06,West,270,0.0,0.0,77,0.00,,,0.00,WUHU216HW,2013-05-13 09:19:00,
2013-05-13 05:24:00,36.8,30.3,30.06,West,270,0.0,0.0,77,0.00,,,0.00,WUHU216HW,2013-05-13 09:24:00,
2013-05-13 05:29:00,36.6,30.1,30.06,West,270,0.0,0.0,77,0.00,,,0.00,WUHU216HW,2013-05-13 09:29:00,
2013-05-13 05:34:00,36.6,30.1,30.06,West,270,0.0,0.0,77,0.00,,,0.00,WUHU216HW,2013-05-13 09:34:00,
2013-05-13 05:39:00,36.6,30.1,30.06,West,270,0.0,0.0,77,0.00,,,0.00,WUHU216HW,2013-05-13 09:39:00,
2013-05-13 05:44:00,36.6,30.1,30.06,West,270,0.0,0.0,77,0.00,,,0.00,WUHU216HW,2013-05-13 09:44:00,
2013-05-13 05:49:00,36.5,30.2,30.05,West,270,0.0,0.0,78,0.00,,,0.00,WUHU216HW,2013-05-13 09:49:00,
2013-05-13 05:54:00,36.5,30.2,30.06,West,270,0.0,0.0,78,0.00,,,0.00,WUHU216HW,2013-05-13 09:54:00,
2013-05-13 05:59:00,36.3,30.0,30.06,West,270,0.0,0.0,78,0.00,,,0.00,WUHU216HW,2013-05-13 09:59:00,
2013-05-13 06:04:00,36.3,30.0,30.05,West,270,0.0,0.0,78,0.00,,,0.00,WUHU216HW,2013-05-13 10:04:00,
2013-05-13 06:09:00,36.3,30.0,30.06,West,270,0.0,0.0,78,0.00,,,0.00,WUHU216HW,2013-05-13 10:09:00,
2013-05-13 06:14:00,36.3,30.0,30.06,West,270,0.0,0.0,78,0.00,,,0.00,WUHU216HW,2013-05-13 10:14:00,
2013-05-13 06:19:00,36.1,29.9,30.05,West,270,0.0,0.0,78,0.00,,,0.00,WUHU216HW,2013-05-13 10:19:00,
2013-05-13 06:24:00,35.9,29.7,30.06,West,270,0.0,0.0,78,0.00,,,0.00,WUHU216HW,2013-05-13 10:24:00,
2013-05-13 06:29:00,35.9,29.7,30.06,West,270,0.0,0.0,78,0.00,,,0.00,WUHU216HW,2013-05-13 10:29:00,
2013-05-13 06:34:00,35.9,29.5,30.06,West,270,0.0,0.0,78,0.00,,,0.00,WUHU216HW,2013-05-13 10:34:00,
2013-05-13 06:39:00,35.7,29.5,30.06,West,270,0.0,0.0,78,0.00,,,0.00,WUHU216HW,2013-05-13 10:39:00,
2013-05-13 06:44:00,35.7,29.5,30.06,West,270,0.0,0.0,78,0.00,,,0.00,WUHU216HW,2013-05-13 10:44:00,
2013-05-13 06:49:00,35.7,29.5,30.07,West,270,0.0,0.0,78,0.00,,,0.00,WUHU216HW,2013-05-13 10:49:00,
2013-05-13 06:54:00,35.7,29.5,30.07,West,270,0.0,0.0,78,0.00,,,0.00,WUHU216HW,2013-05-13 10:54:00,
2013-05-13 06:59:00,35.7,29.5,30.06,West,270,0.0,0.0,78,0.00,,,0.00,WUHU216HW,2013-05-13 10:59:00,
2013-05-13 07:04:00,35.7,29.5,30.07,West,270,0.0,0.0,78,0.00,,,0.00,WUHU216HW,2013-05-13 11:04:00,
2013-05-13 07:09:00,35.4,29.1,30.07,West,270,0.0,0.0,78,0.00,,,0.00,WUHU216HW,2013-05-13 11:09:00,
2013-05-13 07:14:00,35.4,29.1,30.08,West,270,0.0,0.0,78,0.00,,,0.00,WUHU216HW,2013-05-13 11:14:00,
2013-05-13 07:19:00,35.4,29.6,30.08,West,270,0.0,0.0,78,0.00,,,0.00,WUHU216HW,2013-05-13 11:19:00,
2013-05-13 07:24:00,35.6,29.6,30.08,West,270,0.0,0.0,79,0.00,,,0.00,WUHU216HW,2013-05-13 11:24:00,
2013-05-13 07:29:00,35.7,29.8,30.08,West,270,0.0,0.0,79,0.00,,,0.00,WUHU216HW,2013-05-13 11:29:00,
2013-05-13 07:34:00,35.9,30.0,30.08,West,270,0.0,0.0,79,0.00,,,0.00,WUHU216HW,2013-05-13 11:34:00,
2013-05-13 07:39:00,35.9,30.0,30.08,West,270,0.0,0.0,79,0.00,,,0.00,WUHU216HW,2013-05-13 11:39:00,
2013-05-13 07:44:00,36.3,30.4,30.08,West,270,0.0,0.0,79,0.00,,,0.00,WUHU216HW,2013-05-13 11:44:00,
2013-05-13 07:49:00,36.3,30.4,30.08,West,270,0.0,0.0,79,0.00,,,0.00,WUHU216HW,2013-05-13 11:49:00,
2013-05-13 07:54:00,36.5,30.5,30.08,West,270,0.0,0.0,79,0.00,,,0.00,WUHU216HW,2013-05-13 11:54:00,
2013-05-13 07:59:00,36.6,31.1,30.08,West,270,0.0,0.0,80,0.00,,,0.00,WUHU216HW,2013-05-13 11:59:00,
2013-05-13 08:04:00,37.4,31.6,30.08,West,270,0.0,0.0,80,0.00,,,0.00,WUHU216HW,2013-05-13 12:04:00,
2013-05-13 08:09:00,37.7,32.1,30.08,West,270,0.0,0.0,80,0.00,,,0.00,WUHU216HW,2013-05-13 12:09:00,
2013-05-13 08:14:00,37.9,32.3,30.09,West,270,0.0,0.0,80,0.00,,,0.00,WUHU216HW,2013-05-13 12:14:00,
2013-05-13 08:19:00,38.4,32.9,30.09,West,270,0.0,0.0,80,0.00,,,0.00,WUHU216HW,2013-05-13 12:19:00,
2013-05-13 08:24:00,39.0,33.4,30.09,West,270,0.0,0.0,80,0.00,,,0.00,WUHU216HW,2013-05-13 12:24:00,
2013-05-13 08:29:00,39.3,33.7,30.09,West,270,0.0,0.0,80,0.00,,,0.00,WUHU216HW,2013-05-13 12:29:00,
2013-05-13 08:34:00,39.7,34.1,30.10,West,270,0.0,0.0,80,0.00,,,0.00,WUHU216HW,2013-05-13 12:34:00,
2013-05-13 08:39:00,40.2,34.8,30.10,West,270,0.0,0.0,81,0.00,,,0.00,WUHU216HW,2013-05-13 12:39:00,
2013-05-13 08:44:00,40.6,35.2,30.10,NW,315,0.0,0.0,81,0.00,,,0.00,WUHU216HW,2013-05-13 12:44:00,
2013-05-13 08:49:00,41.3,35.9,30.10,West,270,2.4,2.4,81,0.00,,,0.00,WUHU216HW,2013-05-13 12:49:00,
2013-05-13 08:54:00,42.0,36.6,30.10,West,270,0.0,2.4,81,0.00,,,0.00,WUHU216HW,2013-05-13 12:54:00,
2013-05-13 08:59:00,42.6,36.8,30.11,WNW,293,0.0,2.4,80,0.00,,,0.00,WUHU216HW,2013-05-13 12:59:00,
2013-05-13 09:04:00,43.7,37.5,30.11,West,270,0.0,2.9,79,0.00,,,0.00,WUHU216HW,2013-05-13 13:04:00,
2013-05-13 09:09:00,44.2,38.1,30.11,NW,315,0.0,2.9,79,0.00,,,0.00,WUHU216HW,2013-05-13 13:09:00,
2013-05-13 09:14:00,44.7,38.3,30.11,NW,315,0.0,0.0,78,0.00,,,0.00,WUHU216HW,2013-05-13 13:14:00,
2013-05-13 09:19:00,45.5,38.7,30.11,WNW,293,0.0,2.2,77,0.00,,,0.00,WUHU216HW,2013-05-13 13:19:00,
2013-05-13 09:26:00,46.0,38.9,30.11,West,270,0.0,2.2,76,0.00,,,0.00,WUHU216HW,2013-05-13 13:26:00,
2013-05-13 09:31:00,46.5,39.0,30.11,NW,315,1.7,1.7,75,0.00,,,0.00,WUHU216HW,2013-05-13 13:31:00,
2013-05-13 09:36:00,47.1,39.3,30.11,West,270,0.0,1.7,75,0.00,,,0.00,WUHU216HW,2013-05-13 13:36:00,
2013-05-13 09:41:00,47.8,39.2,30.11,West,270,2.6,7.6,72,0.00,,,0.00,WUHU216HW,2013-05-13 13:41:00,
2013-05-13 09:46:00,48.3,39.7,30.12,WSW,248,0.0,7.6,72,0.00,,,0.00,WUHU216HW,2013-05-13 13:46:00,
2013-05-13 09:51:00,48.7,39.9,30.12,SSW,203,0.0,5.1,71,0.00,,,0.00,WUHU216HW,2013-05-13 13:51:00,
2013-05-13 09:56:00,49.2,40.2,30.12,West,270,0.0,5.1,71,0.00,,,0.00,WUHU216HW,2013-05-13 13:56:00,
2013-05-13 10:00:00,49.6,40.2,30.11,NNE,23,0.0,0.0,70,0.00,,,0.00,WUHU216HW,2013-05-13 14:00:00,
2013-05-13 10:07:00,50.1,40.4,30.12,North,0,7.3,7.3,69,0.00,,,0.00,WUHU216HW,2013-05-13 14:07:00,
2013-05-13 10:17:00,50.9,40.3,30.12,West,270,0.0,5.3,67,0.00,,,0.00,WUHU216HW,2013-05-13 14:17:00,
2013-05-13 10:27:00,51.6,39.7,30.12,West,270,6.7,6.7,64,0.00,,,0.00,WUHU216HW,2013-05-13 14:27:00,
2013-05-13 10:37:00,52.3,39.6,30.12,South,180,0.0,9.1,62,0.00,,,0.00,WUHU216HW,2013-05-13 14:37:00,
2013-05-13 10:47:00,53.2,39.2,30.12,North,0,6.2,6.4,59,0.00,,,0.00,WUHU216HW,2013-05-13 14:47:00,
2013-05-13 10:56:00,53.9,39.9,30.12,NW,315,5.8,6.7,59,0.00,,,0.00,WUHU216HW,2013-05-13 14:56:00,
2013-05-13 11:14:00,54.5,39.5,30.12,NW,315,0.0,6.2,57,0.00,,,0.00,WUHU216HW,2013-05-13 15:14:00,
2013-05-13 11:22:00,55.2,37.8,30.13,WSW,248,7.3,7.3,52,0.00,,,0.00,WUHU216HW,2013-05-13 15:22:00,
2013-05-13 11:27:00,55.5,38.1,30.13,SSW,203,2.0,7.3,52,0.00,,,0.00,WUHU216HW,2013-05-13 15:27:00,
2013-05-13 11:32:00,55.9,38.0,30.13,NNE,23,5.3,8.5,51,0.00,,,0.00,WUHU216HW,2013-05-13 15:32:00,
2013-05-13 11:37:00,56.1,38.2,30.13,NNW,338,6.2,8.5,51,0.00,,,0.00,WUHU216HW,2013-05-13 15:37:00,
2013-05-13 11:42:00,56.4,38.1,30.12,SE,135,0.0,6.2,50,0.00,,,0.00,WUHU216HW,2013-05-13 15:42:00,
2013-05-13 11:47:00,56.8,37.9,30.12,SW,225,8.7,8.7,49,0.00,,,0.00,WUHU216HW,2013-05-13 15:47:00,
2013-05-13 11:52:00,56.8,37.9,30.12,West,270,8.2,8.7,49,0.00,,,0.00,WUHU216HW,2013-05-13 15:52:00,
2013-05-13 11:57:00,57.0,37.5,30.12,NNW,338,0.0,8.7,48,0.00,,,0.00,WUHU216HW,2013-05-13 15:57:00,
2013-05-13 12:02:00,57.5,38.0,30.13,West,270,9.6,9.6,48,0.00,,,0.00,WUHU216HW,2013-05-13 16:02:00,
2013-05-13 12:07:00,57.7,38.1,30.12,South,180,0.0,9.6,48,0.00,,,0.00,WUHU216HW,2013-05-13 16:07:00,
2013-05-13 12:12:00,57.9,37.7,30.12,North,0,10.0,10.0,47,0.00,,,0.00,WUHU216HW,2013-05-13 16:12:00,
2013-05-13 12:17:00,58.1,36.7,30.12,North,0,9.6,10.0,45,0.00,,,0.00,WUHU216HW,2013-05-13 16:17:00,
2013-05-13 12:22:00,58.1,37.3,30.11,NW,315,0.0,9.6,46,0.00,,,0.00,WUHU216HW,2013-05-13 16:22:00,
2013-05-13 12:27:00,58.4,37.6,30.12,NE,45,2.9,9.6,46,0.00,,,0.00,WUHU216HW,2013-05-13 16:27:00,
2013-05-13 12:32:00,58.8,36.8,30.11,NW,315,0.0,14.9,44,0.00,,,0.00,WUHU216HW,2013-05-13 16:32:00,
2013-05-13 12:37:00,59.1,37.1,30.11,West,270,5.5,14.9,44,0.00,,,0.00,WUHU216HW,2013-05-13 16:37:00,
2013-05-13 12:42:00,59.0,36.4,30.11,NNW,338,5.3,10.0,43,0.00,,,0.00,WUHU216HW,2013-05-13 16:42:00,
2013-05-13 12:47:00,59.3,36.1,30.11,WSW,248,4.9,10.0,42,0.00,,,0.00,WUHU216HW,2013-05-13 16:47:00,
2013-05-13 12:52:00,59.5,36.3,30.11,WNW,293,4.6,9.1,42,0.00,,,0.00,WUHU216HW,2013-05-13 16:52:00,
2013-05-13 12:57:00,59.7,36.5,30.11,ENE,68,0.0,9.1,42,0.00,,,0.00,WUHU216HW,2013-05-13 16:57:00,
2013-05-13 13:02:00,60.0,36.8,30.11,West,270,8.0,8.0,42,0.00,,,0.00,WUHU216HW,2013-05-13 17:02:00,
2013-05-13 13:08:00,60.0,36.2,30.11,NNE,23,6.4,9.3,41,0.00,,,0.00,WUHU216HW,2013-05-13 17:08:00,
2013-05-13 13:13:00,60.6,37.3,30.10,SW,225,6.2,9.3,42,0.00,,,0.00,WUHU216HW,2013-05-13 17:13:00,
2013-05-13 13:18:00,60.9,37.0,30.10,NNW,338,0.0,9.1,41,0.00,,,0.00,WUHU216HW,2013-05-13 17:18:00,
2013-05-13 13:23:00,60.9,36.4,30.10,East,90,0.0,12.9,40,0.00,,,0.00,WUHU216HW,2013-05-13 17:23:00,
2013-05-13 13:28:00,61.3,37.3,30.10,WSW,248,0.0,12.9,41,0.00,,,0.00,WUHU216HW,2013-05-13 17:28:00,
2013-05-13 13:33:00,61.5,36.9,30.10,NNW,338,9.3,9.3,40,0.00,,,0.00,WUHU216HW,2013-05-13 17:33:00,
2013-05-13 13:38:00,61.8,37.2,30.10,NW,315,12.9,12.9,40,0.00,,,0.00,WUHU216HW,2013-05-13 17:38:00,
2013-05-13 13:43:00,62.2,37.6,30.10,WSW,248,7.6,12.9,40,0.00,,,0.00,WUHU216HW,2013-05-13 17:43:00,
2013-05-13 13:48:00,62.6,37.9,30.10,SW,225,0.0,7.6,40,0.00,,,0.00,WUHU216HW,2013-05-13 17:48:00,
2013-05-13 13:53:00,62.9,38.2,30.09,NNW,338,7.3,7.3,40,0.00,,,0.00,WUHU216HW,2013-05-13 17:53:00,
2013-05-13 13:58:00,64.0,39.2,30.09,West,270,0.0,7.3,40,0.00,,,0.00,WUHU216HW,2013-05-13 17:58:00,
2013-05-13 14:03:00,64.2,38.6,30.09,NNW,338,6.4,6.4,39,0.00,,,0.00,WUHU216HW,2013-05-13 18:03:00,
2013-05-13 14:08:00,64.5,38.2,30.09,ESE,113,0.0,11.6,38,0.00,,,0.00,WUHU216HW,2013-05-13 18:08:00,
2013-05-13 14:13:00,64.4,37.4,30.09,North,0,0.0,11.6,37,0.00,,,0.00,WUHU216HW,2013-05-13 18:13:00,
2013-05-13 14:18:00,64.5,38.2,30.09,SSW,203,0.0,8.5,38,0.00,,,0.00,WUHU216HW,2013-05-13 18:18:00,
2013-05-13 14:23:00,64.9,38.4,30.09,West,270,0.0,6.0,38,0.00,,,0.00,WUHU216HW,2013-05-13 18:23:00,
2013-05-13 14:28:00,65.1,38.7,30.09,North,0,15.6,15.6,38,0.00,,,0.00,WUHU216HW,2013-05-13 18:28:00,
2013-05-13 14:33:00,65.6,39.9,30.09,WNW,293,4.2,15.6,39,0.00,,,0.00,WUHU216HW,2013-05-13 18:33:00,
2013-05-13 14:38:00,66.0,38.8,30.09,NNW,338,0.0,15.6,37,0.00,,,0.00,WUHU216HW,2013-05-13 18:38:00,
2013-05-13 14:43:00,65.8,38.6,30.09,NNW,338,0.0,6.0,37,0.00,,,0.00,WUHU216HW,2013-05-13 18:43:00,
2013-05-13 14:48:00,66.0,38.8,30.09,West,270,7.6,7.6,37,0.00,,,0.00,WUHU216HW,2013-05-13 18:48:00,
2013-05-13 14:53:00,65.6,38.5,30.08,WSW,248,0.0,7.6,37,0.00,,,0.00,WUHU216HW,2013-05-13 18:53:00,
2013-05-13 14:58:00,65.8,39.4,30.08,South,180,0.0,5.1,38,0.00,,,0.00,WUHU216HW,2013-05-13 18:58:00,
2013-05-13 15:03:00,65.8,38.6,30.08,NE,45,0.0,0.0,37,0.00,,,0.00,WUHU216HW,2013-05-13 19:03:00,
2013-05-13 15:08:00,65.8,39.4,30.08,NW,315,4.9,4.9,38,0.00,,,0.00,WUHU216HW,2013-05-13 19:08:00,
2013-05-13 15:13:00,66.0,38.1,30.08,WNW,293,13.4,13.4,36,0.00,,,0.00,WUHU216HW,2013-05-13 19:13:00,
2013-05-13 15:18:00,65.8,37.9,30.08,WNW,293,6.4,13.4,36,0.00,,,0.00,WUHU216HW,2013-05-13 19:18:00,
2013-05-13 15:23:00,65.8,37.9,30.08,WNW,293,0.0,19.4,36,0.00,,,0.00,WUHU216HW,2013-05-13 19:23:00,
2013-05-13 15:28:00,65.4,38.3,30.08,WNW,293,6.0,19.4,37,0.00,,,0.00,WUHU216HW,2013-05-13 19:28:00,
2013-05-13 15:33:00,65.4,38.3,30.08,North,0,0.0,6.0,37,0.00,,,0.00,WUHU216HW,2013-05-13 19:33:00,
2013-05-13 15:38:00,65.4,37.6,30.07,WNW,293,12.3,12.3,36,0.00,,,0.00,WUHU216HW,2013-05-13 19:38:00,
2013-05-13 15:43:00,65.3,37.4,30.08,NNE,23,0.0,12.3,36,0.00,,,0.00,WUHU216HW,2013-05-13 19:43:00,
2013-05-13 15:48:00,65.3,37.4,30.08,SSE,158,0.0,12.3,36,0.00,,,0.00,WUHU216HW,2013-05-13 19:48:00,
2013-05-13 15:53:00,65.1,38.0,30.07,NNW,338,0.0,2.6,37,0.00,,,0.00,WUHU216HW,2013-05-13 19:53:00,
2013-05-13 15:58:00,65.1,37.3,30.07,NW,315,11.1,11.1,36,0.00,,,0.00,WUHU216HW,2013-05-13 19:58:00,
2013-05-13 16:03:00,65.1,37.3,30.07,SSW,203,5.8,11.1,36,0.00,,,0.00,WUHU216HW,2013-05-13 20:03:00,
2013-05-13 16:08:00,64.9,37.1,30.07,NW,315,0.0,11.1,36,0.00,,,0.00,WUHU216HW,2013-05-13 20:08:00,
2013-05-13 16:13:00,64.9,37.1,30.06,NNW,338,5.1,5.1,36,0.00,,,0.00,WUHU216HW,2013-05-13 20:13:00,
2013-05-13 16:18:00,65.1,38.0,30.06,NW,315,2.4,5.1,37,0.00,,,0.00,WUHU216HW,2013-05-13 20:18:00,
2013-05-13 16:23:00,65.3,38.2,30.06,SE,135,1.1,9.3,37,0.00,,,0.00,WUHU216HW,2013-05-13 20:23:00,
2013-05-13 16:28:00,65.3,37.4,30.06,WNW,293,7.6,9.3,36,0.00,,,0.00,WUHU216HW,2013-05-13 20:28:00,
2013-05-13 16:33:00,65.1,36.6,30.06,North,0,0.0,7.6,35,0.00,,,0.00,WUHU216HW,2013-05-13 20:33:00,
2013-05-13 16:38:00,64.9,37.1,30.06,WSW,248,6.4,10.9,36,0.00,,,0.00,WUHU216HW,2013-05-13 20:38:00,
2013-05-13 16:43:00,64.9,37.1,30.06,North,0,1.5,10.9,36,0.00,,,0.00,WUHU216HW,2013-05-13 20:43:00,
2013-05-13 16:48:00,64.9,36.4,30.06,NNW,338,5.3,6.4,35,0.00,,,0.00,WUHU216HW,2013-05-13 20:48:00,
2013-05-13 16:53:00,65.1,37.3,30.05,South,180,5.8,10.5,36,0.00,,,0.00,WUHU216HW,2013-05-13 20:53:00,
2013-05-13 16:58:00,65.1,36.6,30.05,West,270,0.0,10.5,35,0.00,,,0.00,WUHU216HW,2013-05-13 20:58:00,
2013-05-13 17:03:00,65.1,36.6,30.05,NW,315,10.0,10.0,35,0.00,,,0.00,WUHU216HW,2013-05-13 21:03:00,
2013-05-13 17:08:00,65.1,37.3,30.05,NW,315,0.0,10.0,36,0.00,,,0.00,WUHU216HW,2013-05-13 21:08:00,
2013-05-13 17:13:00,65.3,37.4,30.05,North,0,5.8,7.6,36,0.00,,,0.00,WUHU216HW,2013-05-13 21:13:00,
2013-05-13 17:18:00,65.4,37.6,30.05,NNW,338,5.8,5.8,36,0.00,,,0.00,WUHU216HW,2013-05-13 21:18:00,
2013-05-13 17:23:00,65.4,38.3,30.05,ENE,68,0.4,5.8,37,0.00,,,0.00,WUHU216HW,2013-05-13 21:23:00,
2013-05-13 17:28:00,65.4,37.6,30.05,NNW,338,0.0,6.9,36,0.00,,,0.00,WUHU216HW,2013-05-13 21:28:00,
2013-05-13 17:33:00,65.4,36.9,30.05,WNW,293,5.1,6.9,35,0.00,,,0.00,WUHU216HW,2013-05-13 21:33:00,
2013-05-13 17:38:00,65.3,37.4,30.05,WSW,248,1.7,5.1,36,0.00,,,0.00,WUHU216HW,2013-05-13 21:38:00,
2013-05-13 17:43:00,65.4,37.6,30.04,WSW,248,0.4,1.7,36,0.00,,,0.00,WUHU216HW,2013-05-13 21:43:00,
2013-05-13 17:48:00,65.4,36.9,30.05,West,270,4.9,4.9,35,0.00,,,0.00,WUHU216HW,2013-05-13 21:48:00,
2013-05-13 17:53:00,65.4,37.6,30.05,SSE,158,0.0,4.9,36,0.00,,,0.00,WUHU216HW,2013-05-13 21:53:00,
2013-05-13 17:58:00,65.6,37.8,30.05,SE,135,0.0,3.1,36,0.00,,,0.00,WUHU216HW,2013-05-13 21:58:00,
2013-05-13 18:03:00,65.8,37.9,30.05,NW,315,0.0,8.7,36,0.00,,,0.00,WUHU216HW,2013-05-13 22:03:00,
2013-05-13 18:08:00,66.0,38.1,30.05,West,270,0.6,8.7,36,0.00,,,0.00,WUHU216HW,2013-05-13 22:08:00,
2013-05-13 18:13:00,66.0,38.1,30.05,NW,315,0.0,0.6,36,0.00,,,0.00,WUHU216HW,2013-05-13 22:13:00,
2013-05-13 18:18:00,66.0,38.1,30.04,West,270,0.0,0.6,36,0.00,,,0.00,WUHU216HW,2013-05-13 22:18:00,
2013-05-13 18:23:00,66.0,38.1,30.04,West,270,0.0,0.0,36,0.00,,,0.00,WUHU216HW,2013-05-13 22:23:00,
2013-05-13 18:28:00,66.2,39.0,30.03,NNW,338,0.0,0.0,37,0.00,,,0.00,WUHU216HW,2013-05-13 22:28:00,
2013-05-13 18:33:00,66.3,39.1,30.03,NNW,338,6.4,6.4,37,0.00,,,0.00,WUHU216HW,2013-05-13 22:33:00,
2013-05-13 18:38:00,66.3,37.7,30.03,NW,315,6.7,6.9,35,0.00,,,0.00,WUHU216HW,2013-05-13 22:38:00,
2013-05-13 18:43:00,66.3,37.7,30.03,West,270,0.0,6.9,35,0.00,,,0.00,WUHU216HW,2013-05-13 22:43:00,
2013-05-13 18:48:00,66.3,38.4,30.03,SSE,158,0.0,6.7,36,0.00,,,0.00,WUHU216HW,2013-05-13 22:48:00,
2013-05-13 18:53:00,66.3,38.4,30.03,SW,225,0.0,0.0,36,0.00,,,0.00,WUHU216HW,2013-05-13 22:53:00,
2013-05-13 18:58:00,66.2,39.0,30.03,WSW,248,0.0,0.0,37,0.00,,,0.00,WUHU216HW,2013-05-13 22:58:00,
2013-05-13 19:03:00,66.0,38.1,30.03,West,270,0.0,4.0,36,0.00,,,0.00,WUHU216HW,2013-05-13 23:03:00,
2013-05-13 19:08:00,66.0,37.4,30.03,North,0,4.4,4.4,35,0.00,,,0.00,WUHU216HW,2013-05-13 23:08:00,
2013-05-13 19:13:00,65.8,37.2,30.03,WNW,293,6.2,6.2,35,0.00,,,0.00,WUHU216HW,2013-05-13 23:13:00,
2013-05-13 19:18:00,65.6,37.0,30.03,NNW,338,0.0,6.2,35,0.00,,,0.00,WUHU216HW,2013-05-13 23:18:00,
2013-05-13 19:23:00,65.4,37.6,30.03,NW,315,0.0,0.0,36,0.00,,,0.00,WUHU216HW,2013-05-13 23:23:00,
2013-05-13 19:28:00,65.3,38.2,30.03,SSW,203,0.0,4.0,37,0.00,,,0.00,WUHU216HW,2013-05-13 23:28:00,
2013-05-13 19:33:00,65.1,38.0,30.03,West,270,0.0,4.0,37,0.00,,,0.00,WUHU216HW,2013-05-13 23:33:00,
2013-05-13 19:38:00,64.9,38.6,30.03,NW,315,4.2,4.2,38,0.00,,,0.00,WUHU216HW,2013-05-13 23:38:00,
2013-05-13 19:43:00,64.7,38.4,30.03,NW,315,0.0,4.2,38,0.00,,,0.00,WUHU216HW,2013-05-13 23:43:00,
2013-05-13 19:48:00,64.5,38.2,30.04,NNW,338,0.0,4.2,38,0.00,,,0.00,WUHU216HW,2013-05-13 23:48:00,
2013-05-13 19:53:00,64.5,39.0,30.04,WNW,293,0.0,0.0,39,0.00,,,0.00,WUHU216HW,2013-05-13 23:53:00,
2013-05-13 19:58:00,64.2,39.3,30.03,WNW,293,0.0,0.0,40,0.00,,,0.00,WUHU216HW,2013-05-13 23:58:00,
2013-05-13 20:03:00,64.0,39.2,30.04,WNW,293,0.0,0.0,40,0.00,,,0.00,WUHU216HW,2013-05-14 00:03:00,
2013-05-13 20:08:00,63.6,39.4,30.03,West,270,0.0,0.0,41,0.00,,,0.00,WUHU216HW,2013-05-14 00:08:00,
2013-05-13 20:13:00,63.3,39.7,30.03,West,270,0.0,0.0,42,0.00,,,0.00,WUHU216HW,2013-05-14 00:13:00,
2013-05-13 20:18:00,63.1,39.5,30.03,West,270,0.0,0.0,42,0.00,,,0.00,WUHU216HW,2013-05-14 00:18:00,
2013-05-13 20:23:00,62.4,39.5,30.03,West,270,0.0,0.0,43,0.00,,,0.00,WUHU216HW,2013-05-14 00:23:00,
2013-05-13 20:28:00,62.4,39.5,30.04,West,270,0.0,0.0,43,0.00,,,0.00,WUHU216HW,2013-05-14 00:28:00,
2013-05-13 20:33:00,62.2,39.9,30.04,West,270,0.0,0.0,44,0.00,,,0.00,WUHU216HW,2013-05-14 00:33:00,
2013-05-13 20:38:00,61.7,39.4,30.04,West,270,0.0,0.0,44,0.00,,,0.00,WUHU216HW,2013-05-14 00:38:00,
2013-05-13 20:43:00,61.3,39.6,30.04,West,270,0.0,0.0,45,0.00,,,0.00,WUHU216HW,2013-05-14 00:43:00,
2013-05-13 20:48:00,60.9,39.3,30.04,West,270,0.0,0.0,45,0.00,,,0.00,WUHU216HW,2013-05-14 00:48:00,
2013-05-13 20:53:00,60.6,39.6,30.05,West,270,0.0,0.0,46,0.00,,,0.00,WUHU216HW,2013-05-14 00:53:00,
2013-05-13 20:58:00,60.0,39.7,30.05,West,270,0.0,0.0,47,0.00,,,0.00,WUHU216HW,2013-05-14 00:58:00,
2013-05-13 21:03:00,59.7,39.3,30.05,West,270,0.0,0.0,47,0.00,,,0.00,WUHU216HW,2013-05-14 01:03:00,
2013-05-13 21:08:00,59.1,39.4,30.05,West,270,0.0,0.0,48,0.00,,,0.00,WUHU216HW,2013-05-14 01:08:00,
2013-05-13 21:13:00,58.8,39.7,30.04,West,270,0.0,0.0,49,0.00,,,0.00,WUHU216HW,2013-05-14 01:13:00,
2013-05-13 21:18:00,58.6,39.5,30.05,West,270,0.0,0.0,49,0.00,,,0.00,WUHU216HW,2013-05-14 01:18:00,
2013-05-13 21:23:00,58.1,39.6,30.04,West,270,0.0,0.0,50,0.00,,,0.00,WUHU216HW,2013-05-14 01:23:00,
2013-05-13 21:28:00,57.7,39.7,30.05,West,270,0.0,0.0,51,0.00,,,0.00,WUHU216HW,2013-05-14 01:28:00,
2013-05-13 21:33:00,57.3,39.4,30.05,West,270,0.0,0.0,51,0.00,,,0.00,WUHU216HW,2013-05-14 01:33:00,
2013-05-13 21:38:00,57.2,39.7,30.05,West,270,0.0,0.0,52,0.00,,,0.00,WUHU216HW,2013-05-14 01:38:00,
2013-05-13 21:43:00,56.8,39.8,30.05,West,270,0.0,0.0,53,0.00,,,0.00,WUHU216HW,2013-05-14 01:43:00,
2013-05-13 21:48:00,56.4,39.5,30.05,West,270,0.0,0.0,53,0.00,,,0.00,WUHU216HW,2013-05-14 01:48:00,
2013-05-13 21:53:00,55.9,39.4,30.05,West,270,0.0,0.0,54,0.00,,,0.00,WUHU216HW,2013-05-14 01:53:00,
2013-05-13 21:58:00,55.5,39.0,30.05,West,270,0.0,0.0,54,0.00,,,0.00,WUHU216HW,2013-05-14 01:58:00,
2013-05-13 22:03:00,55.4,39.3,30.06,West,270,0.0,0.0,55,0.00,,,0.00,WUHU216HW,2013-05-14 02:03:00,
2013-05-13 22:08:00,55.0,39.0,30.06,West,270,0.0,0.0,55,0.00,,,0.00,WUHU216HW,2013-05-14 02:08:00,
2013-05-13 22:13:00,54.6,39.2,30.06,West,270,0.0,0.0,56,0.00,,,0.00,WUHU216HW,2013-05-14 02:13:00,
2013-05-13 22:18:00,54.3,39.3,30.06,West,270,0.0,0.0,57,0.00,,,0.00,WUHU216HW,2013-05-14 02:18:00,
2013-05-13 22:23:00,53.9,39.0,30.06,West,270,0.0,0.0,57,0.00,,,0.00,WUHU216HW,2013-05-14 02:23:00,
2013-05-13 22:28:00,53.7,39.3,30.06,West,270,0.0,0.0,58,0.00,,,0.00,WUHU216HW,2013-05-14 02:28:00,
2013-05-13 22:33:00,53.4,38.9,30.06,West,270,0.0,0.0,58,0.00,,,0.00,WUHU216HW,2013-05-14 02:33:00,
2013-05-13 22:38:00,52.8,38.9,30.06,West,270,0.0,0.0,59,0.00,,,0.00,WUHU216HW,2013-05-14 02:38:00,
2013-05-13 22:43:00,52.5,38.5,30.06,West,270,0.0,0.0,59,0.00,,,0.00,WUHU216HW,2013-05-14 02:43:00,
2013-05-13 22:48:00,52.3,38.8,30.06,West,270,0.0,0.0,60,0.00,,,0.00,WUHU216HW,2013-05-14 02:48:00,
2013-05-13 22:53:00,51.9,38.4,30.06,West,270,0.0,0.0,60,0.00,,,0.00,WUHU216HW,2013-05-14 02:53:00,
2013-05-13 22:58:00,51.6,38.5,30.06,West,270,0.0,0.0,61,0.00,,,0.00,WUHU216HW,2013-05-14 02:58:00,
2013-05-13 23:03:00,51.6,38.5,30.06,West,270,0.0,0.0,61,0.00,,,0.00,WUHU216HW,2013-05-14 03:03:00,
2013-05-13 23:08:00,51.0,38.0,30.06,West,270,0.0,0.0,61,0.00,,,0.00,WUHU216HW,2013-05-14 03:08:00,
2013-05-13 23:13:00,50.9,38.3,30.06,West,270,0.0,0.0,62,0.00,,,0.00,WUHU216HW,2013-05-14 03:13:00,
2013-05-13 23:18:00,50.7,38.1,30.06,West,270,0.0,0.0,62,0.00,,,0.00,WUHU216HW,2013-05-14 03:18:00,
2013-05-13 23:23:00,50.3,38.1,30.06,West,270,0.0,0.0,63,0.00,,,0.00,WUHU216HW,2013-05-14 03:23:00,
2013-05-13 23:28:00,50.1,38.0,30.06,West,270,0.0,0.0,63,0.00,,,0.00,WUHU216HW,2013-05-14 03:28:00,
2013-05-13 23:33:00,49.8,38.0,30.06,West,270,0.0,0.0,64,0.00,,,0.00,WUHU216HW,2013-05-14 03:33:00,
2013-05-13 23:38:00,49.8,38.0,30.06,West,270,0.0,0.0,64,0.00,,,0.00,WUHU216HW,2013-05-14 03:38:00,
2013-05-13 23:43:00,49.6,37.9,30.05,West,270,0.0,0.0,64,0.00,,,0.00,WUHU216HW,2013-05-14 03:43:00,
2013-05-13 23:48:00,49.6,37.9,30.05,West,270,0.0,0.0,64,0.00,,,0.00,WUHU216HW,2013-05-14 03:48:00,
2013-05-13 23:53:00,49.1,37.7,30.05,West,270,0.0,0.0,65,0.00,,,0.00,WUHU216HW,2013-05-14 03:53:00,
2013-05-13 23:58:00,48.9,38.0,30.05,West,270,0.0,0.0,66,0.00,,,0.00,WUHU216HW,2013-05-14 03:58:00,